sensor_id;sensor_type;location;lat;lon;timestamp;P1;durP1;ratioP1;P2;durP2;ratioP2
65533;SDS011;53640;55.838;37.184;2022-11-14T00:01:27;0.40;;;0.40;;
65533;SDS011;53640;55.838;37.184;2022-11-14T00:04:12;0.40;;;0.40;;
65533;SDS011;53640;55.838;37.184;2022-11-14T00:06:57;0.40;;;0.40;;
65533;SDS011;53640;55.838;37.184;2022-11-14T00:09:42;0.25;;;0.25;;
65533;SDS011;53640;55.838;37.184;2022-11-14T00:12:29;0.40;;;0.20;;
65533;SDS011;53640;55.838;37.184;2022-11-14T00:15:14;1.08;;;0.20;;
65533;SDS011;53640;55.838;37.184;2022-11-14T00:18:02;0.20;;;0.20;;
65533;SDS011;53640;55.838;37.184;2022-11-14T00:20:51;0.28;;;0.28;;
65533;SDS011;53640;55.838;37.184;2022-11-14T00:23:36;0.43;;;0.20;;
65533;SDS011;53640;55.838;37.184;2022-11-14T00:26:22;0.20;;;0.20;;
65533;SDS011;53640;55.838;37.184;2022-11-14T00:29:09;1.38;;;0.30;;
65533;SDS011;53640;55.838;37.184;2022-11-14T00:31:55;0.20;;;0.20;;
65533;SDS011;53640;55.838;37.184;2022-11-14T00:34:41;0.13;;;0.13;;
65533;SDS011;53640;55.838;37.184;2022-11-14T00:37:26;1.75;;;0.30;;
65533;SDS011;53640;55.838;37.184;2022-11-14T00:40:11;0.30;;;0.30;;
65533;SDS011;53640;55.838;37.184;2022-11-14T00:42:57;0.20;;;0.20;;
65533;SDS011;53640;55.838;37.184;2022-11-14T00:45:43;5.03;;;0.30;;
65533;SDS011;53640;55.838;37.184;2022-11-14T00:48:28;0.30;;;0.20;;
65533;SDS011;53640;55.838;37.184;2022-11-14T00:51:14;1.08;;;0.20;;
65533;SDS011;53640;55.838;37.184;2022-11-14T00:53:58;0.30;;;0.20;;
65533;SDS011;53640;55.838;37.184;2022-11-14T00:56:43;0.00;;;0.00;;
65533;SDS011;53640;55.838;37.184;2022-11-14T00:59:28;0.68;;;0.20;;
65533;SDS011;53640;55.838;37.184;2022-11-14T01:02:13;0.10;;;0.10;;
65533;SDS011;53640;55.838;37.184;2022-11-14T01:04:58;0.38;;;0.20;;
65533;SDS011;53640;55.838;37.184;2022-11-14T01:07:43;0.52;;;0.20;;
65533;SDS011;53640;55.838;37.184;2022-11-14T01:10:28;0.20;;;0.20;;
65533;SDS011;53640;55.838;37.184;2022-11-14T01:13:13;0.57;;;0.30;;
65533;SDS011;53640;55.838;37.184;2022-11-14T01:16:00;0.15;;;0.15;;
65533;SDS011;53640;55.838;37.184;2022-11-14T01:18:45;0.20;;;0.20;;
65533;SDS011;53640;55.838;37.184;2022-11-14T01:21:30;0.80;;;0.17;;
65533;SDS011;53640;55.838;37.184;2022-11-14T01:24:15;0.45;;;0.20;;
65533;SDS011;53640;55.838;37.184;2022-11-14T01:27:00;1.02;;;0.20;;
65533;SDS011;53640;55.838;37.184;2022-11-14T01:29:45;0.93;;;0.22;;
65533;SDS011;53640;55.838;37.184;2022-11-14T01:32:30;0.10;;;0.10;;
65533;SDS011;53640;55.838;37.184;2022-11-14T01:35:16;0.32;;;0.22;;
65533;SDS011;53640;55.838;37.184;2022-11-14T01:38:01;0.30;;;0.25;;
65533;SDS011;53640;55.838;37.184;2022-11-14T01:40:46;0.30;;;0.30;;
65533;SDS011;53640;55.838;37.184;2022-11-14T01:46:27;0.65;;;0.30;;
65533;SDS011;53640;55.838;37.184;2022-11-14T01:49:29;0.60;;;0.40;;
65533;SDS011;53640;55.838;37.184;2022-11-14T01:52:30;0.73;;;0.30;;
65533;SDS011;53640;55.838;37.184;2022-11-14T01:55:23;1.98;;;0.30;;
65533;SDS011;53640;55.838;37.184;2022-11-14T01:58:10;1.00;;;0.30;;
65533;SDS011;53640;55.838;37.184;2022-11-14T02:00:56;0.20;;;0.17;;
65533;SDS011;53640;55.838;37.184;2022-11-14T02:03:41;0.20;;;0.20;;
65533;SDS011;53640;55.838;37.184;2022-11-14T02:06:30;0.55;;;0.55;;
65533;SDS011;53640;55.838;37.184;2022-11-14T02:09:15;0.20;;;0.10;;
65533;SDS011;53640;55.838;37.184;2022-11-14T02:12:01;0.93;;;0.43;;
65533;SDS011;53640;55.838;37.184;2022-11-14T02:14:48;0.75;;;0.30;;
65533;SDS011;53640;55.838;37.184;2022-11-14T02:17:35;1.27;;;0.20;;
65533;SDS011;53640;55.838;37.184;2022-11-14T02:20:26;0.80;;;0.32;;
65533;SDS011;53640;55.838;37.184;2022-11-14T02:23:12;1.70;;;0.40;;
65533;SDS011;53640;55.838;37.184;2022-11-14T02:25:58;0.20;;;0.20;;
65533;SDS011;53640;55.838;37.184;2022-11-14T02:28:43;0.47;;;0.47;;
65533;SDS011;53640;55.838;37.184;2022-11-14T02:31:28;0.45;;;0.30;;
65533;SDS011;53640;55.838;37.184;2022-11-14T02:34:13;0.63;;;0.30;;
65533;SDS011;53640;55.838;37.184;2022-11-14T02:37:03;2.35;;;0.60;;
65533;SDS011;53640;55.838;37.184;2022-11-14T02:39:48;0.30;;;0.30;;
65533;SDS011;53640;55.838;37.184;2022-11-14T02:42:32;2.50;;;0.35;;
65533;SDS011;53640;55.838;37.184;2022-11-14T02:45:18;1.05;;;0.30;;
65533;SDS011;53640;55.838;37.184;2022-11-14T02:48:04;1.25;;;0.30;;
65533;SDS011;53640;55.838;37.184;2022-11-14T02:50:49;1.95;;;0.40;;
65533;SDS011;53640;55.838;37.184;2022-11-14T02:53:33;0.13;;;0.13;;
65533;SDS011;53640;55.838;37.184;2022-11-14T02:56:18;0.52;;;0.30;;
65533;SDS011;53640;55.838;37.184;2022-11-14T02:59:03;2.88;;;0.50;;
65533;SDS011;53640;55.838;37.184;2022-11-14T03:01:49;0.93;;;0.40;;
65533;SDS011;53640;55.838;37.184;2022-11-14T03:04:34;0.20;;;0.20;;
65533;SDS011;53640;55.838;37.184;2022-11-14T03:07:19;2.00;;;0.40;;
65533;SDS011;53640;55.838;37.184;2022-11-14T03:10:04;1.52;;;0.50;;
65533;SDS011;53640;55.838;37.184;2022-11-14T03:12:55;1.17;;;0.40;;
65533;SDS011;53640;55.838;37.184;2022-11-14T03:15:41;4.13;;;0.50;;
65533;SDS011;53640;55.838;37.184;2022-11-14T03:18:26;1.00;;;0.50;;
65533;SDS011;53640;55.838;37.184;2022-11-14T03:21:12;4.20;;;0.75;;
65533;SDS011;53640;55.838;37.184;2022-11-14T03:23:59;2.08;;;0.70;;
65533;SDS011;53640;55.838;37.184;2022-11-14T03:26:44;1.52;;;0.60;;
65533;SDS011;53640;55.838;37.184;2022-11-14T03:29:29;1.00;;;0.47;;
65533;SDS011;53640;55.838;37.184;2022-11-14T03:32:14;1.70;;;0.50;;
65533;SDS011;53640;55.838;37.184;2022-11-14T03:34:59;1.58;;;0.43;;
65533;SDS011;53640;55.838;37.184;2022-11-14T03:37:44;1.42;;;0.40;;
65533;SDS011;53640;55.838;37.184;2022-11-14T03:40:29;3.22;;;0.70;;
65533;SDS011;53640;55.838;37.184;2022-11-14T03:43:18;2.05;;;0.40;;
65533;SDS011;53640;55.838;37.184;2022-11-14T03:46:04;2.33;;;0.70;;
65533;SDS011;53640;55.838;37.184;2022-11-14T03:48:49;1.67;;;0.60;;
65533;SDS011;53640;55.838;37.184;2022-11-14T03:51:34;1.27;;;0.40;;
65533;SDS011;53640;55.838;37.184;2022-11-14T03:54:18;3.63;;;0.57;;
65533;SDS011;53640;55.838;37.184;2022-11-14T03:57:06;2.42;;;0.43;;
65533;SDS011;53640;55.838;37.184;2022-11-14T03:59:51;2.70;;;0.35;;
65533;SDS011;53640;55.838;37.184;2022-11-14T04:02:36;2.65;;;0.52;;
65533;SDS011;53640;55.838;37.184;2022-11-14T04:05:21;1.20;;;0.60;;
65533;SDS011;53640;55.838;37.184;2022-11-14T04:08:07;1.88;;;0.52;;
65533;SDS011;53640;55.838;37.184;2022-11-14T04:10:52;0.90;;;0.50;;
65533;SDS011;53640;55.838;37.184;2022-11-14T04:13:37;1.38;;;0.57;;
65533;SDS011;53640;55.838;37.184;2022-11-14T04:16:21;2.65;;;0.50;;
65533;SDS011;53640;55.838;37.184;2022-11-14T04:19:09;0.60;;;0.60;;
65533;SDS011;53640;55.838;37.184;2022-11-14T04:21:55;1.92;;;0.28;;
65533;SDS011;53640;55.838;37.184;2022-11-14T04:24:40;1.10;;;0.60;;
65533;SDS011;53640;55.838;37.184;2022-11-14T04:27:25;0.85;;;0.50;;
65533;SDS011;53640;55.838;37.184;2022-11-14T04:30:11;1.30;;;0.32;;
65533;SDS011;53640;55.838;37.184;2022-11-14T04:32:56;3.38;;;0.60;;
65533;SDS011;53640;55.838;37.184;2022-11-14T04:35:40;3.08;;;0.68;;
65533;SDS011;53640;55.838;37.184;2022-11-14T04:38:25;2.75;;;0.80;;
65533;SDS011;53640;55.838;37.184;2022-11-14T04:41:10;5.13;;;1.10;;
65533;SDS011;53640;55.838;37.184;2022-11-14T04:43:55;3.55;;;0.70;;
65533;SDS011;53640;55.838;37.184;2022-11-14T04:46:40;1.63;;;0.80;;
65533;SDS011;53640;55.838;37.184;2022-11-14T04:49:24;1.75;;;0.80;;
65533;SDS011;53640;55.838;37.184;2022-11-14T04:52:09;1.80;;;0.70;;
65533;SDS011;53640;55.838;37.184;2022-11-14T04:54:54;1.08;;;0.60;;
65533;SDS011;53640;55.838;37.184;2022-11-14T04:57:39;5.40;;;0.82;;
65533;SDS011;53640;55.838;37.184;2022-11-14T05:00:25;3.85;;;0.80;;
65533;SDS011;53640;55.838;37.184;2022-11-14T05:03:11;5.10;;;0.90;;
65533;SDS011;53640;55.838;37.184;2022-11-14T05:05:59;2.13;;;0.60;;
65533;SDS011;53640;55.838;37.184;2022-11-14T05:08:45;1.85;;;0.70;;
65533;SDS011;53640;55.838;37.184;2022-11-14T05:11:32;3.33;;;0.88;;
65533;SDS011;53640;55.838;37.184;2022-11-14T05:14:17;2.47;;;0.60;;
65533;SDS011;53640;55.838;37.184;2022-11-14T05:17:01;2.42;;;0.90;;
65533;SDS011;53640;55.838;37.184;2022-11-14T05:19:46;2.50;;;0.85;;
65533;SDS011;53640;55.838;37.184;2022-11-14T05:22:31;2.65;;;0.70;;
65533;SDS011;53640;55.838;37.184;2022-11-14T05:25:19;4.30;;;0.90;;
65533;SDS011;53640;55.838;37.184;2022-11-14T05:28:05;1.05;;;0.80;;
65533;SDS011;53640;55.838;37.184;2022-11-14T05:30:50;1.40;;;0.80;;
65533;SDS011;53640;55.838;37.184;2022-11-14T05:33:38;3.38;;;0.80;;
65533;SDS011;53640;55.838;37.184;2022-11-14T05:36:23;1.08;;;0.70;;
65533;SDS011;53640;55.838;37.184;2022-11-14T05:39:08;1.73;;;0.90;;
65533;SDS011;53640;55.838;37.184;2022-11-14T05:41:53;2.63;;;0.80;;
65533;SDS011;53640;55.838;37.184;2022-11-14T05:44:41;6.90;;;1.33;;
65533;SDS011;53640;55.838;37.184;2022-11-14T05:47:26;7.85;;;1.15;;
65533;SDS011;53640;55.838;37.184;2022-11-14T05:50:11;3.72;;;0.73;;
65533;SDS011;53640;55.838;37.184;2022-11-14T05:52:59;6.07;;;0.90;;
65533;SDS011;53640;55.838;37.184;2022-11-14T05:55:44;4.47;;;1.00;;
65533;SDS011;53640;55.838;37.184;2022-11-14T05:58:30;2.40;;;1.00;;
65533;SDS011;53640;55.838;37.184;2022-11-14T06:01:16;1.08;;;0.85;;
65533;SDS011;53640;55.838;37.184;2022-11-14T06:04:04;3.38;;;1.45;;
65533;SDS011;53640;55.838;37.184;2022-11-14T06:06:50;3.60;;;1.00;;
65533;SDS011;53640;55.838;37.184;2022-11-14T06:09:34;3.13;;;0.90;;
65533;SDS011;53640;55.838;37.184;2022-11-14T06:12:19;7.72;;;1.35;;
65533;SDS011;53640;55.838;37.184;2022-11-14T06:15:05;5.25;;;1.00;;
65533;SDS011;53640;55.838;37.184;2022-11-14T06:17:51;4.53;;;1.20;;
65533;SDS011;53640;55.838;37.184;2022-11-14T06:20:37;7.50;;;1.45;;
65533;SDS011;53640;55.838;37.184;2022-11-14T06:23:22;2.00;;;0.65;;
65533;SDS011;53640;55.838;37.184;2022-11-14T06:26:11;2.90;;;1.00;;
65533;SDS011;53640;55.838;37.184;2022-11-14T06:29:05;1.80;;;0.80;;
65533;SDS011;53640;55.838;37.184;2022-11-14T06:31:50;3.85;;;1.13;;
65533;SDS011;53640;55.838;37.184;2022-11-14T06:34:35;3.92;;;1.23;;
65533;SDS011;53640;55.838;37.184;2022-11-14T06:37:21;8.43;;;1.35;;
65533;SDS011;53640;55.838;37.184;2022-11-14T06:40:06;3.80;;;1.30;;
65533;SDS011;53640;55.838;37.184;2022-11-14T06:42:54;1.67;;;0.80;;
65533;SDS011;53640;55.838;37.184;2022-11-14T06:45:40;2.30;;;0.95;;
65533;SDS011;53640;55.838;37.184;2022-11-14T06:48:25;3.85;;;1.52;;
65533;SDS011;53640;55.838;37.184;2022-11-14T06:51:11;5.35;;;1.50;;
65533;SDS011;53640;55.838;37.184;2022-11-14T06:53:56;7.35;;;1.88;;
65533;SDS011;53640;55.838;37.184;2022-11-14T06:56:41;1.77;;;1.00;;
65533;SDS011;53640;55.838;37.184;2022-11-14T06:59:26;4.40;;;1.02;;
65533;SDS011;53640;55.838;37.184;2022-11-14T07:02:11;4.35;;;1.60;;
65533;SDS011;53640;55.838;37.184;2022-11-14T07:04:57;3.20;;;0.80;;
65533;SDS011;53640;55.838;37.184;2022-11-14T07:07:42;3.42;;;1.15;;
65533;SDS011;53640;55.838;37.184;2022-11-14T07:10:27;2.97;;;0.82;;
65533;SDS011;53640;55.838;37.184;2022-11-14T07:13:16;1.15;;;0.75;;
65533;SDS011;53640;55.838;37.184;2022-11-14T07:16:02;4.50;;;1.05;;
65533;SDS011;53640;55.838;37.184;2022-11-14T07:18:48;9.65;;;1.23;;
65533;SDS011;53640;55.838;37.184;2022-11-14T07:21:33;6.10;;;1.20;;
65533;SDS011;53640;55.838;37.184;2022-11-14T07:24:18;7.32;;;1.10;;
65533;SDS011;53640;55.838;37.184;2022-11-14T07:27:04;12.05;;;1.10;;
65533;SDS011;53640;55.838;37.184;2022-11-14T07:29:52;3.33;;;1.15;;
65533;SDS011;53640;55.838;37.184;2022-11-14T07:32:37;5.30;;;1.10;;
65533;SDS011;53640;55.838;37.184;2022-11-14T07:35:22;3.13;;;0.95;;
65533;SDS011;53640;55.838;37.184;2022-11-14T07:38:07;2.45;;;1.05;;
65533;SDS011;53640;55.838;37.184;2022-11-14T07:40:53;1.35;;;0.80;;
65533;SDS011;53640;55.838;37.184;2022-11-14T07:43:41;5.97;;;1.30;;
65533;SDS011;53640;55.838;37.184;2022-11-14T07:46:27;8.80;;;1.10;;
65533;SDS011;53640;55.838;37.184;2022-11-14T07:49:11;3.30;;;1.38;;
65533;SDS011;53640;55.838;37.184;2022-11-14T07:51:56;3.38;;;0.85;;
65533;SDS011;53640;55.838;37.184;2022-11-14T07:54:41;2.60;;;1.02;;
65533;SDS011;53640;55.838;37.184;2022-11-14T07:57:26;4.20;;;1.10;;
65533;SDS011;53640;55.838;37.184;2022-11-14T08:00:11;9.27;;;1.30;;
65533;SDS011;53640;55.838;37.184;2022-11-14T08:03:00;4.63;;;1.10;;
65533;SDS011;53640;55.838;37.184;2022-11-14T08:05:45;4.22;;;1.30;;
65533;SDS011;53640;55.838;37.184;2022-11-14T08:08:30;3.63;;;1.00;;
65533;SDS011;53640;55.838;37.184;2022-11-14T08:11:15;3.67;;;1.40;;
65533;SDS011;53640;55.838;37.184;2022-11-14T08:14:20;4.45;;;1.42;;
65533;SDS011;53640;55.838;37.184;2022-11-14T08:17:04;4.72;;;1.10;;
65533;SDS011;53640;55.838;37.184;2022-11-14T08:19:49;4.30;;;1.48;;
65533;SDS011;53640;55.838;37.184;2022-11-14T08:22:34;4.70;;;1.10;;
65533;SDS011;53640;55.838;37.184;2022-11-14T08:25:20;7.63;;;1.48;;
65533;SDS011;53640;55.838;37.184;2022-11-14T08:28:04;3.30;;;1.02;;
65533;SDS011;53640;55.838;37.184;2022-11-14T08:30:49;16.73;;;1.67;;
65533;SDS011;53640;55.838;37.184;2022-11-14T08:33:34;5.10;;;0.95;;
65533;SDS011;53640;55.838;37.184;2022-11-14T08:36:22;9.35;;;1.42;;
65533;SDS011;53640;55.838;37.184;2022-11-14T08:39:06;3.25;;;1.25;;
65533;SDS011;53640;55.838;37.184;2022-11-14T08:41:51;4.30;;;1.38;;
65533;SDS011;53640;55.838;37.184;2022-11-14T08:44:36;2.45;;;1.17;;
65533;SDS011;53640;55.838;37.184;2022-11-14T08:47:21;6.32;;;1.35;;
65533;SDS011;53640;55.838;37.184;2022-11-14T08:50:07;2.80;;;1.00;;
65533;SDS011;53640;55.838;37.184;2022-11-14T08:52:52;2.78;;;1.23;;
65533;SDS011;53640;55.838;37.184;2022-11-14T08:55:42;6.63;;;1.77;;
65533;SDS011;53640;55.838;37.184;2022-11-14T09:01:15;4.22;;;1.10;;
65533;SDS011;53640;55.838;37.184;2022-11-14T09:04:00;3.40;;;1.30;;
65533;SDS011;53640;55.838;37.184;2022-11-14T09:06:45;4.93;;;1.35;;
65533;SDS011;53640;55.838;37.184;2022-11-14T09:09:30;5.10;;;1.20;;
65533;SDS011;53640;55.838;37.184;2022-11-14T09:12:15;5.18;;;1.20;;
65533;SDS011;53640;55.838;37.184;2022-11-14T09:15:01;3.67;;;1.25;;
65533;SDS011;53640;55.838;37.184;2022-11-14T09:17:46;3.10;;;1.08;;
65533;SDS011;53640;55.838;37.184;2022-11-14T09:20:31;7.05;;;1.40;;
65533;SDS011;53640;55.838;37.184;2022-11-14T09:23:18;3.10;;;1.27;;
65533;SDS011;53640;55.838;37.184;2022-11-14T09:26:06;3.78;;;1.50;;
65533;SDS011;53640;55.838;37.184;2022-11-14T09:28:52;4.57;;;1.30;;
65533;SDS011;53640;55.838;37.184;2022-11-14T09:31:37;5.20;;;1.40;;
65533;SDS011;53640;55.838;37.184;2022-11-14T09:34:22;4.38;;;1.20;;
65533;SDS011;53640;55.838;37.184;2022-11-14T09:37:07;3.50;;;1.50;;
65533;SDS011;53640;55.838;37.184;2022-11-14T09:39:52;4.35;;;1.52;;
65533;SDS011;53640;55.838;37.184;2022-11-14T09:46:23;3.67;;;1.65;;
65533;SDS011;53640;55.838;37.184;2022-11-14T09:49:34;3.58;;;1.20;;
65533;SDS011;53640;55.838;37.184;2022-11-14T09:55:21;4.57;;;1.63;;
65533;SDS011;53640;55.838;37.184;2022-11-14T09:58:10;4.72;;;1.27;;
65533;SDS011;53640;55.838;37.184;2022-11-14T10:04:20;5.50;;;1.40;;
65533;SDS011;53640;55.838;37.184;2022-11-14T10:07:26;5.63;;;1.63;;
65533;SDS011;53640;55.838;37.184;2022-11-14T10:10:45;6.88;;;1.48;;
65533;SDS011;53640;55.838;37.184;2022-11-14T10:19:30;4.38;;;1.30;;
65533;SDS011;53640;55.838;37.184;2022-11-14T10:25:52;5.38;;;1.35;;
65533;SDS011;53640;55.838;37.184;2022-11-14T10:29:20;6.28;;;1.70;;
65533;SDS011;53640;55.838;37.184;2022-11-14T10:32:15;3.83;;;1.60;;
65533;SDS011;53640;55.838;37.184;2022-11-14T10:35:06;5.20;;;1.75;;
65533;SDS011;53640;55.838;37.184;2022-11-14T10:38:11;5.22;;;1.67;;
65533;SDS011;53640;55.838;37.184;2022-11-14T10:41:03;4.25;;;1.60;;
65533;SDS011;53640;55.838;37.184;2022-11-14T10:43:49;6.57;;;1.40;;
65533;SDS011;53640;55.838;37.184;2022-11-14T10:46:40;10.93;;;1.80;;
65533;SDS011;53640;55.838;37.184;2022-11-14T10:49:34;7.65;;;1.52;;
65533;SDS011;53640;55.838;37.184;2022-11-14T10:52:24;11.93;;;1.70;;
65533;SDS011;53640;55.838;37.184;2022-11-14T10:55:20;5.18;;;1.65;;
65533;SDS011;53640;55.838;37.184;2022-11-14T10:58:08;9.65;;;2.13;;
65533;SDS011;53640;55.838;37.184;2022-11-14T11:00:54;3.33;;;1.88;;
65533;SDS011;53640;55.838;37.184;2022-11-14T11:03:39;5.35;;;1.58;;
65533;SDS011;53640;55.838;37.184;2022-11-14T11:06:26;3.25;;;1.35;;
65533;SDS011;53640;55.838;37.184;2022-11-14T11:09:17;5.78;;;1.40;;
65533;SDS011;53640;55.838;37.184;2022-11-14T11:18:30;4.22;;;1.85;;
65533;SDS011;53640;55.838;37.184;2022-11-14T11:21:17;3.10;;;1.58;;
65533;SDS011;53640;55.838;37.184;2022-11-14T11:24:04;1.92;;;1.38;;
65533;SDS011;53640;55.838;37.184;2022-11-14T11:26:49;3.70;;;1.52;;
65533;SDS011;53640;55.838;37.184;2022-11-14T11:33:15;6.82;;;1.95;;
65533;SDS011;53640;55.838;37.184;2022-11-14T11:36:12;7.55;;;1.50;;
65533;SDS011;53640;55.838;37.184;2022-11-14T11:39:04;2.17;;;1.13;;
65533;SDS011;53640;55.838;37.184;2022-11-14T11:41:49;4.38;;;1.52;;
65533;SDS011;53640;55.838;37.184;2022-11-14T11:44:45;3.60;;;1.67;;
65533;SDS011;53640;55.838;37.184;2022-11-14T11:47:41;3.97;;;1.60;;
65533;SDS011;53640;55.838;37.184;2022-11-14T11:50:47;5.07;;;1.58;;
65533;SDS011;53640;55.838;37.184;2022-11-14T11:53:34;4.13;;;1.20;;
65533;SDS011;53640;55.838;37.184;2022-11-14T11:56:24;2.67;;;1.15;;
65533;SDS011;53640;55.838;37.184;2022-11-14T11:59:36;1.98;;;1.02;;
65533;SDS011;53640;55.838;37.184;2022-11-14T12:05:41;3.05;;;1.30;;
65533;SDS011;53640;55.838;37.184;2022-11-14T12:11:41;5.05;;;1.75;;
65533;SDS011;53640;55.838;37.184;2022-11-14T12:21:02;4.07;;;2.08;;
65533;SDS011;53640;55.838;37.184;2022-11-14T12:40:17;8.68;;;2.90;;
65533;SDS011;53640;55.838;37.184;2022-11-14T13:18:29;6.18;;;3.00;;
65533;SDS011;53640;55.838;37.184;2022-11-14T13:21:32;7.60;;;3.15;;
65533;SDS011;53640;55.838;37.184;2022-11-14T13:27:43;14.60;;;3.85;;
65533;SDS011;53640;55.838;37.184;2022-11-14T13:33:54;13.30;;;3.10;;
65533;SDS011;53640;55.838;37.184;2022-11-14T13:36:47;14.77;;;3.65;;
65533;SDS011;53640;55.838;37.184;2022-11-14T13:39:58;11.13;;;2.40;;
65533;SDS011;53640;55.838;37.184;2022-11-14T13:49:28;12.55;;;2.75;;
65533;SDS011;53640;55.838;37.184;2022-11-14T13:52:43;5.65;;;2.55;;
65533;SDS011;53640;55.838;37.184;2022-11-14T13:55:31;14.95;;;3.38;;
65533;SDS011;53640;55.838;37.184;2022-11-14T13:58:48;10.45;;;2.88;;
65533;SDS011;53640;55.838;37.184;2022-11-14T14:16:59;15.80;;;3.95;;
65533;SDS011;53640;55.838;37.184;2022-11-14T14:29:44;10.45;;;2.85;;
65533;SDS011;53640;55.838;37.184;2022-11-14T14:32:38;11.63;;;2.70;;
65533;SDS011;53640;55.838;37.184;2022-11-14T14:35:25;7.53;;;2.72;;
65533;SDS011;53640;55.838;37.184;2022-11-14T14:38:11;27.08;;;4.05;;
65533;SDS011;53640;55.838;37.184;2022-11-14T14:41:05;11.85;;;3.35;;
65533;SDS011;53640;55.838;37.184;2022-11-14T14:43:52;8.27;;;2.70;;
65533;SDS011;53640;55.838;37.184;2022-11-14T14:46:38;9.85;;;3.92;;
65533;SDS011;53640;55.838;37.184;2022-11-14T14:52:20;21.55;;;6.60;;
65533;SDS011;53640;55.838;37.184;2022-11-14T14:55:34;17.35;;;6.97;;
65533;SDS011;53640;55.838;37.184;2022-11-14T15:01:11;19.58;;;6.80;;
65533;SDS011;53640;55.838;37.184;2022-11-14T15:04:07;16.38;;;6.45;;
65533;SDS011;53640;55.838;37.184;2022-11-14T15:06:56;20.50;;;5.55;;
65533;SDS011;53640;55.838;37.184;2022-11-14T15:13:03;14.68;;;4.45;;
65533;SDS011;53640;55.838;37.184;2022-11-14T15:15:52;14.77;;;4.07;;
65533;SDS011;53640;55.838;37.184;2022-11-14T15:18:56;13.80;;;4.50;;
65533;SDS011;53640;55.838;37.184;2022-11-14T15:21:45;13.05;;;3.42;;
65533;SDS011;53640;55.838;37.184;2022-11-14T15:28:18;18.48;;;4.32;;
65533;SDS011;53640;55.838;37.184;2022-11-14T15:31:05;14.27;;;3.67;;
65533;SDS011;53640;55.838;37.184;2022-11-14T15:34:17;10.13;;;3.28;;
65533;SDS011;53640;55.838;37.184;2022-11-14T15:40:22;9.85;;;3.10;;
65533;SDS011;53640;55.838;37.184;2022-11-14T15:49:29;13.48;;;4.03;;
65533;SDS011;53640;55.838;37.184;2022-11-14T15:52:27;10.43;;;3.45;;
65533;SDS011;53640;55.838;37.184;2022-11-14T15:55:22;9.85;;;3.60;;
65533;SDS011;53640;55.838;37.184;2022-11-14T15:58:08;13.73;;;3.47;;
65533;SDS011;53640;55.838;37.184;2022-11-14T16:01:14;15.40;;;3.50;;
65533;SDS011;53640;55.838;37.184;2022-11-14T16:04:17;17.33;;;3.50;;
65533;SDS011;53640;55.838;37.184;2022-11-14T16:07:31;13.05;;;4.05;;
65533;SDS011;53640;55.838;37.184;2022-11-14T16:10:17;9.20;;;3.03;;
65533;SDS011;53640;55.838;37.184;2022-11-14T16:13:29;12.77;;;3.22;;
65533;SDS011;53640;55.838;37.184;2022-11-14T16:16:16;4.65;;;2.17;;
65533;SDS011;53640;55.838;37.184;2022-11-14T16:19:01;11.23;;;2.70;;
65533;SDS011;53640;55.838;37.184;2022-11-14T16:21:47;9.35;;;2.42;;
65533;SDS011;53640;55.838;37.184;2022-11-14T16:24:53;6.78;;;2.67;;
65533;SDS011;53640;55.838;37.184;2022-11-14T16:27:38;11.27;;;3.72;;
65533;SDS011;53640;55.838;37.184;2022-11-14T16:30:24;11.40;;;2.45;;
65533;SDS011;53640;55.838;37.184;2022-11-14T16:33:11;11.10;;;3.15;;
65533;SDS011;53640;55.838;37.184;2022-11-14T16:35:57;10.88;;;2.78;;
65533;SDS011;53640;55.838;37.184;2022-11-14T16:38:42;6.88;;;2.53;;
65533;SDS011;53640;55.838;37.184;2022-11-14T16:41:29;10.75;;;3.47;;
65533;SDS011;53640;55.838;37.184;2022-11-14T16:44:14;8.32;;;2.22;;
65533;SDS011;53640;55.838;37.184;2022-11-14T16:47:00;6.63;;;2.30;;
65533;SDS011;53640;55.838;37.184;2022-11-14T16:49:45;4.22;;;2.55;;
65533;SDS011;53640;55.838;37.184;2022-11-14T16:52:30;5.85;;;2.10;;
65533;SDS011;53640;55.838;37.184;2022-11-14T16:55:15;6.70;;;2.15;;
65533;SDS011;53640;55.838;37.184;2022-11-14T16:58:00;3.40;;;1.77;;
65533;SDS011;53640;55.838;37.184;2022-11-14T17:00:45;18.67;;;3.67;;
65533;SDS011;53640;55.838;37.184;2022-11-14T17:03:31;9.73;;;2.30;;
65533;SDS011;53640;55.838;37.184;2022-11-14T17:06:16;3.50;;;1.70;;
65533;SDS011;53640;55.838;37.184;2022-11-14T17:09:01;8.48;;;2.25;;
65533;SDS011;53640;55.838;37.184;2022-11-14T17:11:48;8.48;;;1.70;;
65533;SDS011;53640;55.838;37.184;2022-11-14T17:14:38;3.55;;;1.95;;
65533;SDS011;53640;55.838;37.184;2022-11-14T17:17:25;10.93;;;1.65;;
65533;SDS011;53640;55.838;37.184;2022-11-14T17:20:15;9.30;;;2.13;;
65533;SDS011;53640;55.838;37.184;2022-11-14T17:23:06;3.90;;;1.90;;
65533;SDS011;53640;55.838;37.184;2022-11-14T17:25:59;5.72;;;1.95;;
65533;SDS011;53640;55.838;37.184;2022-11-14T17:29:00;7.28;;;1.70;;
65533;SDS011;53640;55.838;37.184;2022-11-14T17:31:45;4.32;;;1.58;;
65533;SDS011;53640;55.838;37.184;2022-11-14T17:34:32;9.18;;;1.40;;
65533;SDS011;53640;55.838;37.184;2022-11-14T17:37:20;7.05;;;1.95;;
65533;SDS011;53640;55.838;37.184;2022-11-14T17:40:13;4.95;;;1.27;;
65533;SDS011;53640;55.838;37.184;2022-11-14T17:42:58;6.40;;;1.50;;
65533;SDS011;53640;55.838;37.184;2022-11-14T17:45:52;6.13;;;1.88;;
65533;SDS011;53640;55.838;37.184;2022-11-14T17:48:38;4.97;;;1.40;;
65533;SDS011;53640;55.838;37.184;2022-11-14T17:51:25;3.30;;;1.40;;
65533;SDS011;53640;55.838;37.184;2022-11-14T17:54:13;5.75;;;1.70;;
65533;SDS011;53640;55.838;37.184;2022-11-14T17:56:58;4.43;;;1.20;;
65533;SDS011;53640;55.838;37.184;2022-11-14T17:59:45;4.88;;;1.35;;
65533;SDS011;53640;55.838;37.184;2022-11-14T18:02:32;2.85;;;1.42;;
65533;SDS011;53640;55.838;37.184;2022-11-14T18:05:17;1.92;;;1.23;;
65533;SDS011;53640;55.838;37.184;2022-11-14T18:08:03;1.65;;;1.02;;
65533;SDS011;53640;55.838;37.184;2022-11-14T18:10:50;7.28;;;2.05;;
65533;SDS011;53640;55.838;37.184;2022-11-14T18:13:47;3.70;;;1.15;;
65533;SDS011;53640;55.838;37.184;2022-11-14T18:16:36;8.32;;;2.17;;
65533;SDS011;53640;55.838;37.184;2022-11-14T18:19:28;1.95;;;1.10;;
65533;SDS011;53640;55.838;37.184;2022-11-14T18:22:13;4.65;;;1.13;;
65533;SDS011;53640;55.838;37.184;2022-11-14T18:25:02;4.05;;;0.90;;
65533;SDS011;53640;55.838;37.184;2022-11-14T18:27:47;3.58;;;1.10;;
65533;SDS011;53640;55.838;37.184;2022-11-14T18:30:33;6.07;;;1.15;;
65533;SDS011;53640;55.838;37.184;2022-11-14T18:33:18;2.08;;;0.80;;
65533;SDS011;53640;55.838;37.184;2022-11-14T18:36:04;1.67;;;1.10;;
65533;SDS011;53640;55.838;37.184;2022-11-14T18:38:55;1.90;;;0.70;;
65533;SDS011;53640;55.838;37.184;2022-11-14T18:41:41;1.60;;;0.90;;
65533;SDS011;53640;55.838;37.184;2022-11-14T18:44:29;3.08;;;0.80;;
65533;SDS011;53640;55.838;37.184;2022-11-14T18:47:27;17.45;;;1.02;;
65533;SDS011;53640;55.838;37.184;2022-11-14T18:50:21;0.88;;;0.73;;
65533;SDS011;53640;55.838;37.184;2022-11-14T18:53:06;5.40;;;0.90;;
65533;SDS011;53640;55.838;37.184;2022-11-14T18:55:53;2.67;;;0.80;;
65533;SDS011;53640;55.838;37.184;2022-11-14T18:58:38;2.25;;;1.00;;
65533;SDS011;53640;55.838;37.184;2022-11-14T19:01:25;3.95;;;1.08;;
65533;SDS011;53640;55.838;37.184;2022-11-14T19:04:12;2.88;;;0.90;;
65533;SDS011;53640;55.838;37.184;2022-11-14T19:07:00;3.63;;;0.80;;
65533;SDS011;53640;55.838;37.184;2022-11-14T19:09:45;2.90;;;0.75;;
65533;SDS011;53640;55.838;37.184;2022-11-14T19:12:32;2.20;;;1.00;;
65533;SDS011;53640;55.838;37.184;2022-11-14T19:15:17;1.02;;;0.65;;
65533;SDS011;53640;55.838;37.184;2022-11-14T19:18:03;1.73;;;0.63;;